createdAt,value
2022-10-14T00:01:34.225Z,95835.00
2022-10-14T00:05:41.776Z,95830.00
2022-10-14T00:09:46.380Z,95822.00
2022-10-14T00:13:51.972Z,95826.00
2022-10-14T00:17:54.800Z,95824.00
2022-10-14T00:21:57.522Z,95841.00
2022-10-14T00:26:00.236Z,95839.00
2022-10-14T00:30:08.829Z,95837.00
2022-10-14T00:34:12.940Z,95834.00
2022-10-14T00:38:15.672Z,95827.00
2022-10-14T00:42:18.363Z,95835.00
2022-10-14T00:46:24.523Z,95830.00
2022-10-14T00:50:35.345Z,95830.00
2022-10-14T00:54:42.175Z,95832.00
2022-10-14T00:58:45.638Z,95833.00
2022-10-14T01:02:50.339Z,95829.00
2022-10-14T01:07:01.883Z,95831.00
2022-10-14T01:11:10.950Z,95827.00
2022-10-14T01:15:21.340Z,95824.00
2022-10-14T01:19:48.320Z,95829.00
2022-10-14T01:24:14.497Z,95832.00
2022-10-14T01:28:29.147Z,95841.00
2022-10-14T01:32:37.667Z,95829.00
2022-10-14T01:36:48.980Z,95827.00
2022-10-14T01:40:57.545Z,95835.00
2022-10-14T01:45:07.372Z,95838.00
2022-10-14T01:49:20.807Z,95837.00
2022-10-14T01:53:26.952Z,95837.00
2022-10-14T01:57:35.552Z,95817.00
2022-10-14T02:01:38.463Z,95829.00
2022-10-14T02:05:48.190Z,95836.00
2022-10-14T02:10:00.870Z,95843.00
2022-10-14T02:14:17.497Z,95834.00
2022-10-14T02:18:27.358Z,95836.00
2022-10-14T02:22:36.540Z,95833.00
2022-10-14T02:26:41.209Z,95836.00
2022-10-14T02:30:48.593Z,95838.00
2022-10-14T02:34:57.440Z,95842.00
2022-10-14T02:39:03.057Z,95835.00
2022-10-14T02:43:07.958Z,95829.00
2022-10-14T02:47:10.673Z,95830.00
2022-10-14T02:51:13.399Z,95833.00
2022-10-14T02:55:17.650Z,95839.00
2022-10-14T02:59:20.383Z,95835.00
2022-10-14T03:03:23.078Z,95830.00
2022-10-14T03:07:26.139Z,95830.00
2022-10-14T03:11:32.845Z,95816.00
2022-10-14T03:15:40.441Z,95825.00
2022-10-14T03:19:45.252Z,95827.00
2022-10-14T03:23:52.570Z,95820.00
2022-10-14T03:28:02.637Z,95818.00
2022-10-14T03:32:24.330Z,95814.00
2022-10-14T03:37:05.970Z,95822.00
2022-10-14T03:41:11.912Z,95812.00
2022-10-14T03:45:16.315Z,95820.00
2022-10-14T03:49:20.577Z,95821.00
2022-10-14T03:53:23.510Z,95812.00
2022-10-14T03:57:26.864Z,95810.00
2022-10-14T04:01:33.958Z,95811.00
2022-10-14T04:05:49.351Z,95803.00
2022-10-14T04:09:57.286Z,95804.00
2022-10-14T04:14:01.075Z,95787.00
2022-10-14T04:18:07.535Z,95792.00
2022-10-14T04:22:11.127Z,95787.00
2022-10-14T04:26:13.874Z,95788.00
2022-10-14T04:30:16.668Z,95788.00
2022-10-14T04:34:27.857Z,95780.00
2022-10-14T04:38:31.106Z,95779.00
2022-10-14T04:42:39.855Z,95776.00
2022-10-14T04:46:51.103Z,95764.00
2022-10-14T04:50:58.284Z,95770.00
2022-10-14T04:55:21.324Z,95756.00
2022-10-14T04:59:24.023Z,95763.00
2022-10-14T05:03:55.772Z,95759.00
2022-10-14T05:08:00.274Z,95759.00
2022-10-14T05:12:14.622Z,95751.00
2022-10-14T05:16:24.405Z,95749.00
2022-10-14T05:20:29.500Z,95753.00
2022-10-14T05:24:35.127Z,95744.00
2022-10-14T05:28:39.217Z,95744.00
2022-10-14T05:32:43.046Z,95740.00
2022-10-14T05:36:46.135Z,95738.00
2022-10-14T05:40:54.637Z,95733.00
2022-10-14T05:44:57.982Z,95737.00
2022-10-14T05:49:05.838Z,95737.00
2022-10-14T05:53:11.406Z,95742.00
2022-10-14T05:57:19.718Z,95733.00
2022-10-14T06:01:22.856Z,95725.00
2022-10-14T06:05:26.795Z,95732.00
2022-10-14T06:09:31.635Z,95725.00
2022-10-14T06:13:35.888Z,95736.00
2022-10-14T06:17:38.732Z,95724.00
2022-10-14T06:21:41.641Z,95726.00
2022-10-14T06:25:44.345Z,95719.00
2022-10-14T06:29:48.373Z,95720.00
2022-10-14T06:33:51.165Z,95728.00
2022-10-14T06:37:53.939Z,95730.00
2022-10-14T06:41:56.711Z,95736.00
2022-10-14T06:46:00.915Z,95732.00
2022-10-14T06:50:03.814Z,95734.00
2022-10-14T06:54:07.221Z,95724.00
2022-10-14T06:58:09.909Z,95723.00
2022-10-14T07:02:14.219Z,95711.00
2022-10-14T07:06:16.953Z,95720.00
2022-10-14T07:10:19.694Z,95709.00
2022-10-14T07:14:22.543Z,95710.00
2022-10-14T07:18:26.681Z,95710.00
2022-10-14T07:22:29.415Z,95705.00
2022-10-14T07:26:32.539Z,95710.00
2022-10-14T07:30:35.516Z,95702.00
2022-10-14T07:34:39.712Z,95701.00
2022-10-14T07:38:43.055Z,95709.00
2022-10-14T07:42:45.970Z,95706.00
2022-10-14T07:46:48.720Z,95720.00
2022-10-14T07:50:52.918Z,95707.00
2022-10-14T07:54:55.851Z,95719.00
2022-10-14T07:58:59.903Z,95715.00
2022-10-14T08:03:02.606Z,95710.00
2022-10-14T08:07:06.771Z,95707.00
2022-10-14T08:11:11.740Z,95714.00
2022-10-14T08:15:14.450Z,95710.00
2022-10-14T08:19:17.201Z,95703.00
2022-10-14T08:23:21.591Z,95703.00
2022-10-14T08:27:26.588Z,95720.00
2022-10-14T08:31:29.862Z,95709.00
2022-10-14T08:35:32.588Z,95716.00
2022-10-14T08:39:36.678Z,95721.00
2022-10-14T08:43:42.782Z,95709.00
2022-10-14T08:47:47.387Z,95707.00
2022-10-14T08:51:52.097Z,95711.00
2022-10-14T08:56:00.177Z,95702.00
2022-10-14T09:00:03.405Z,95696.00
2022-10-14T09:04:08.308Z,95721.00
2022-10-14T09:08:16.723Z,95715.00
2022-10-14T09:12:25.022Z,95721.00
2022-10-14T09:16:32.050Z,95710.00
2022-10-14T09:20:34.859Z,95716.00
2022-10-14T09:24:38.450Z,95720.00
2022-10-14T09:28:45.298Z,95709.00
2022-10-14T09:32:51.392Z,95717.00
2022-10-14T09:36:54.653Z,95706.00
2022-10-14T09:41:00.639Z,95703.00
2022-10-14T09:45:09.716Z,95703.00
2022-10-14T09:49:18.295Z,95701.00
2022-10-14T09:53:29.047Z,95706.00
2022-10-14T09:57:33.246Z,95706.00
2022-10-14T10:01:40.700Z,95706.00
2022-10-14T10:05:43.415Z,95705.00
2022-10-14T10:09:55.935Z,95710.00
2022-10-14T10:13:58.610Z,95710.00
2022-10-14T10:18:04.123Z,95701.00
2022-10-14T10:22:20.930Z,95708.00
2022-10-14T10:26:27.234Z,95707.00
2022-10-14T10:30:33.446Z,95700.00
2022-10-14T10:34:58.634Z,95689.00
2022-10-14T10:39:05.254Z,95694.00
2022-10-14T10:43:45.039Z,95694.00
2022-10-14T10:47:54.466Z,95698.00
2022-10-14T10:52:04.272Z,95697.00
2022-10-14T10:56:18.364Z,95690.00
2022-10-14T11:04:35.214Z,95693.00
2022-10-14T11:09:14.629Z,95679.00
2022-10-14T11:13:25.632Z,95679.00
2022-10-14T11:21:56.460Z,95687.00
2022-10-14T11:26:06.757Z,95673.00
2022-10-14T11:30:16.187Z,95670.00
2022-10-14T11:34:29.743Z,95664.00
2022-10-14T11:38:50.830Z,95655.00
2022-10-14T11:43:09.787Z,95648.00
2022-10-14T11:47:18.555Z,95640.00
2022-10-14T11:51:25.697Z,95644.00
2022-10-14T11:55:34.118Z,95643.00
2022-10-14T11:59:48.938Z,95630.00
2022-10-14T12:03:59.784Z,95632.00
2022-10-14T12:08:17.290Z,95635.00
2022-10-14T12:12:23.547Z,95632.00
2022-10-14T12:16:28.043Z,95628.00
2022-10-14T12:20:37.523Z,95625.00
2022-10-14T12:24:45.435Z,95620.00
2022-10-14T12:28:48.789Z,95619.00
2022-10-14T12:33:03.652Z,95616.00
2022-10-14T12:37:51.191Z,95611.00
2022-10-14T12:41:56.185Z,95600.00
2022-10-14T12:46:05.289Z,95611.00
2022-10-14T12:50:29.882Z,95606.00
2022-10-14T12:54:33.962Z,95603.00
2022-10-14T12:58:41.627Z,95593.00
2022-10-14T13:02:46.820Z,95591.00
2022-10-14T13:07:40.107Z,95592.00
2022-10-14T13:11:45.729Z,95582.00
2022-10-14T13:15:52.961Z,95588.00
2022-10-14T13:19:55.795Z,95585.00
2022-10-14T13:24:02.571Z,95587.00
2022-10-14T13:28:12.588Z,95584.00
2022-10-14T13:32:30.854Z,95575.00
2022-10-14T13:36:38.494Z,95588.00
2022-10-14T13:40:46.646Z,95616.00
2022-10-14T13:44:49.937Z,95619.00
2022-10-14T13:48:56.544Z,95630.00
2022-10-14T13:53:01.130Z,95618.00
2022-10-14T14:01:37.006Z,95614.00
2022-10-14T14:05:42.772Z,95613.00
2022-10-14T14:09:51.159Z,95605.00
2022-10-14T14:14:01.046Z,95616.00
2022-10-14T14:18:04.276Z,95607.00
2022-10-14T14:22:08.954Z,95599.00
2022-10-14T14:26:19.270Z,95601.00
2022-10-14T14:30:28.656Z,95585.00
2022-10-14T14:34:31.455Z,95584.00
2022-10-14T14:38:37.063Z,95581.00
2022-10-14T14:42:42.162Z,95582.00
2022-10-14T14:46:46.538Z,95580.00
2022-10-14T14:50:49.871Z,95579.00
2022-10-14T14:54:52.580Z,95582.00
2022-10-14T14:58:59.018Z,95562.00
2022-10-14T15:03:04.991Z,95578.00
2022-10-14T15:07:21.045Z,95565.00
2022-10-14T15:11:24.901Z,95557.00
2022-10-14T15:15:30.695Z,95560.00
2022-10-14T15:19:38.935Z,95561.00
2022-10-14T15:23:45.838Z,95556.00
2022-10-14T15:27:51.470Z,95553.00
2022-10-14T15:32:07.380Z,95537.00
2022-10-14T15:36:13.973Z,95535.00
2022-10-14T15:40:19.710Z,95534.00
2022-10-14T15:44:22.411Z,95536.00
2022-10-14T15:48:25.190Z,95523.00
2022-10-14T15:52:30.799Z,95528.00
2022-10-14T15:56:33.705Z,95515.00
2022-10-14T16:00:36.592Z,95512.00
2022-10-14T16:05:00.539Z,95511.00
2022-10-14T16:09:05.271Z,95513.00
2022-10-14T16:13:07.959Z,95508.00
2022-10-14T16:17:10.828Z,95502.00
2022-10-14T16:21:17.112Z,95504.00
2022-10-14T16:25:24.975Z,95511.00
2022-10-14T16:29:27.971Z,95509.00
2022-10-14T16:33:30.687Z,95506.00
2022-10-14T16:37:33.508Z,95505.00
2022-10-14T16:41:37.615Z,95511.00
2022-10-14T16:45:40.342Z,95512.00
2022-10-14T16:49:45.422Z,95510.00
2022-10-14T16:53:48.989Z,95514.00
2022-10-14T16:57:53.052Z,95516.00
2022-10-14T17:01:56.106Z,95523.00
2022-10-14T17:05:59.583Z,95510.00
2022-10-14T17:10:02.476Z,95506.00
2022-10-14T17:14:06.834Z,95505.00
2022-10-14T17:18:12.374Z,95510.00
2022-10-14T17:22:15.464Z,95522.00
2022-10-14T17:26:20.208Z,95518.00
2022-10-14T17:30:24.696Z,95521.00
2022-10-14T17:34:27.464Z,95517.00
2022-10-14T17:38:31.423Z,95510.00
2022-10-14T17:42:34.128Z,95513.00
2022-10-14T17:46:38.233Z,95515.00
2022-10-14T17:50:41.347Z,95506.00
2022-10-14T17:54:44.051Z,95499.00
2022-10-14T17:58:46.846Z,95502.00
2022-10-14T18:02:50.927Z,95495.00
2022-10-14T18:06:54.094Z,95500.00
2022-10-14T18:10:57.155Z,95508.00
2022-10-14T18:15:00.214Z,95494.00
2022-10-14T18:19:06.843Z,95504.00
2022-10-14T18:23:10.264Z,95511.00
2022-10-14T18:27:13.007Z,95505.00
2022-10-14T18:31:17.255Z,95510.00
2022-10-14T18:35:22.192Z,95507.00
2022-10-14T18:39:25.200Z,95507.00
2022-10-14T18:43:28.108Z,95498.00
2022-10-14T18:47:30.769Z,95492.00
2022-10-14T18:51:36.736Z,95481.00
2022-10-14T18:55:39.598Z,95492.00
2022-10-14T18:59:42.395Z,95493.00
2022-10-14T19:03:47.182Z,95489.00
2022-10-14T19:07:51.316Z,95486.00
2022-10-14T19:11:54.320Z,95498.00
2022-10-14T19:16:04.808Z,95479.00
2022-10-14T19:20:08.465Z,95468.00
2022-10-14T19:24:13.270Z,95470.00
2022-10-14T19:28:18.220Z,95463.00
2022-10-14T19:32:21.345Z,95453.00
2022-10-14T19:36:26.390Z,95447.00
2022-10-14T19:40:30.524Z,95446.00
2022-10-14T19:44:34.220Z,95444.00
2022-10-14T19:48:37.525Z,95442.00
2022-10-14T19:52:40.359Z,95436.00
2022-10-14T19:56:46.190Z,95434.00
2022-10-14T20:00:48.895Z,95444.00
2022-10-14T20:04:51.671Z,95439.00
2022-10-14T20:08:57.426Z,95427.00
2022-10-14T20:13:01.491Z,95431.00
2022-10-14T20:17:06.694Z,95431.00
2022-10-14T20:21:12.526Z,95434.00
2022-10-14T20:25:18.490Z,95441.00
2022-10-14T20:29:22.579Z,95444.00
2022-10-14T20:33:25.674Z,95433.00
2022-10-14T20:37:31.470Z,95434.00
2022-10-14T20:41:34.372Z,95434.00
2022-10-14T20:45:38.463Z,95420.00
2022-10-14T20:49:41.201Z,95417.00
2022-10-14T20:53:43.909Z,95426.00
2022-10-14T20:57:47.342Z,95418.00
2022-10-14T21:01:51.438Z,95400.00
2022-10-14T21:05:54.122Z,95393.00
2022-10-14T21:09:56.819Z,95390.00
2022-10-14T21:14:01.399Z,95390.00
2022-10-14T21:18:06.721Z,95385.00
2022-10-14T21:22:10.020Z,95378.00
2022-10-14T21:26:12.766Z,95370.00
2022-10-14T21:30:15.496Z,95366.00
2022-10-14T21:34:19.718Z,95363.00
2022-10-14T21:38:22.438Z,95361.00
2022-10-14T21:42:25.301Z,95361.00
2022-10-14T21:46:28.851Z,95351.00
2022-10-14T21:50:32.894Z,95347.00
2022-10-14T21:54:35.636Z,95341.00
2022-10-14T21:58:38.717Z,95332.00
2022-10-14T22:02:41.437Z,95331.00
2022-10-14T22:06:45.519Z,95318.00
2022-10-14T22:10:48.211Z,95324.00
2022-10-14T22:14:50.926Z,95303.00
2022-10-14T22:18:54.091Z,95308.00
2022-10-14T22:22:59.257Z,95316.00
2022-10-14T22:27:01.988Z,95308.00
2022-10-14T22:31:05.739Z,95313.00
2022-10-14T22:35:09.576Z,95297.00
2022-10-14T22:39:15.518Z,95297.00
2022-10-14T22:43:18.210Z,95285.00
2022-10-14T22:47:21.244Z,95292.00
2022-10-14T22:55:34.774Z,95290.00
2022-10-14T22:59:37.740Z,95279.00
2022-10-14T23:03:41.310Z,95273.00
2022-10-14T23:07:44.024Z,95266.00
2022-10-14T23:11:48.225Z,95268.00
2022-10-14T23:15:57.509Z,95260.00
2022-10-14T23:20:00.299Z,95249.00
2022-10-14T23:24:05.263Z,95246.00
2022-10-14T23:28:09.686Z,95262.00
2022-10-14T23:32:12.445Z,95248.00
2022-10-14T23:36:16.190Z,95239.00
2022-10-14T23:40:19.157Z,95239.00
2022-10-14T23:44:23.214Z,95236.00
2022-10-14T23:48:26.819Z,95223.00
2022-10-14T23:52:29.711Z,95232.00
2022-10-14T23:56:32.382Z,95227.00
